Pittsburgh, PA (15215)

6:13 AM EDT on June 24, 2017 (GMT -0400)
W. O'hara Township | | Change Station
Active Advisory: Flood Advisory Active Notice: Flood Advisory

Elev 1161 ft 40.52 °N, 79.93 °W | Updated 13 seconds ago

Partly Cloudy
Partly Cloudy
65.7 °F
Feels Like 65.7 °F
N
0.0
Wind Variable Wind from SSW
Gusts 0.0 mph

Today
High -- | Low -- °F
--% Chance of Precip.
Yesterday
High -- | Low -- °F
Precip. -- in
Pressure 29.80 in
Visibility 8.0 miles
Clouds Mostly Cloudy 900 ft
Mostly Cloudy 1300 ft
Dew Point 66 °F
Humidity 99%
Rainfall 0.20 in
Snow Depth Not available.
5:50 AM 8:54 PM
New Moon, 0% visible
METAR KAGC 240953Z 28006KT 8SM BKN009 BKN013 19/17 A2980 RMK AO2 CIG 006V011 SLP090 T01890172
Pressure 29.80 in
Visibility 8.0 miles
Clouds Mostly Cloudy 900 ft
Mostly Cloudy 1300 ft
Dew Point 66 °F
Humidity 99%
Rainfall 0.20 in
Snow Depth Not available.
5:50 AM 8:54 PM
New Moon, 0% visible
METAR KAGC 240953Z 28006KT 8SM BKN009 BKN013 19/17 A2980 RMK AO2 CIG 006V011 SLP090 T01890172

Get Your Daily Forecast Email!

Thanks for signing up!

Be on the lookout for a verification email in your inbox.

You'll start receiving severe weather alerts in your inbox..

×

10-Day Weather Forecast

Almanac

Astronomy

Jun. 24, 2017 Rise Set
Actual Time
Civil Twilight
Nautical Twilight
Astronomical Twilight
Moon
Length of Visible Light
Length of Day
Tomorrow will be .
, % of the Moon is Illuminated

Today's Extremes

State Highs State Lows

Community

WunderPhotos

Category 6

Welcome to Category 6. This is the collective home for Weather Underground's featured writeups by Dr. Jeff Masters (right), Bob Henson (left), Chris Burt, and other regular contributors.

Nearby

Air Quality

  Air Quality AQ Index Pollutant
Not available.

Snow Depth

Station Depth Elevation

Earthquake Activity

City Distance Mag. Time & Date
Minimum magnitude displayed is 2.5.

Coastal Water Temperatures

Place Temperature

Stations

Nearby Weather Stations

Station Location Temp. Windchill Dew Point Humidity Wind Precip. Elev Updated Type
                   

Watches & Warnings

Flood Advisory
Issued: 4:52 AM EDT Jun. 24, 2017 – National Weather Service

The National Weather Service in Pittsburgh has issued a
* flood advisory for
the Ohio River at Pittsburgh.
* Until Sunday afternoon.
* At 4am Saturday the stage was 16.8 feet.
* Flood stage is 25.0 feet.
* Forecast... the river will rise to near 18.8 feet this evening.
* Impact... at 18.0 feet, water begins to flow onto the Monongahela
parking wharf. At 19.0 feet, water begins to flow onto the North
Shore riverwalk between the stadiums.


Lat... Lon 4043 7999 4045 8005 4047 8003 4045 8001
      4046 7999 4045 7998